createdAt,value
2023-03-02T00:02:04.829Z,-4.29
2023-03-02T00:07:35.652Z,-4.29
2023-03-02T00:12:59.283Z,-4.28
2023-03-02T00:18:21.445Z,-4.29
2023-03-02T00:23:43.746Z,-4.26
2023-03-02T00:29:06.141Z,-4.35
2023-03-02T00:34:28.279Z,-4.33
2023-03-02T00:39:52.667Z,-4.34
2023-03-02T00:45:15.066Z,-4.29
2023-03-02T00:50:41.571Z,-4.37
2023-03-02T00:56:05.270Z,-4.20
2023-03-02T01:01:30.427Z,-4.23
2023-03-02T01:06:52.331Z,-4.27
2023-03-02T01:12:15.002Z,-4.23
2023-03-02T01:17:37.426Z,-4.20
2023-03-02T01:22:59.369Z,-4.30
2023-03-02T01:28:21.373Z,-4.22
2023-03-02T01:33:43.741Z,-4.25
2023-03-02T01:39:06.355Z,-4.25
2023-03-02T01:44:42.140Z,-4.32
2023-03-02T01:50:22.414Z,-4.33
2023-03-02T01:55:49.181Z,-4.41
2023-03-02T02:01:16.090Z,-4.35
2023-03-02T02:06:41.340Z,-4.60
2023-03-02T02:12:03.900Z,-4.40
2023-03-02T02:17:26.388Z,-4.67
2023-03-02T02:23:05.914Z,-4.58
2023-03-02T02:28:36.032Z,-4.74
2023-03-02T02:34:09.834Z,-4.97
2023-03-02T02:39:36.390Z,-5.03
2023-03-02T02:45:01.935Z,-5.38
2023-03-02T02:50:33.305Z,-5.65
2023-03-02T02:55:58.750Z,-5.58
2023-03-02T03:15:36.408Z,-5.81
2023-03-02T03:21:51.378Z,-5.70
2023-03-02T03:27:16.336Z,-5.87
2023-03-02T03:32:40.576Z,-5.57
2023-03-02T03:38:07.125Z,-5.69
2023-03-02T03:43:29.840Z,-5.66
2023-03-02T03:48:52.684Z,-5.48
2023-03-02T03:54:15.229Z,-5.37
2023-03-02T03:59:39.145Z,-5.40
2023-03-02T04:05:06.900Z,-5.54
2023-03-02T04:10:30.272Z,-5.27
2023-03-02T04:15:54.475Z,-5.27
2023-03-02T04:21:17.038Z,-5.28
2023-03-02T04:26:40.453Z,-5.23
2023-03-02T04:32:05.712Z,-5.22
2023-03-02T04:37:28.941Z,-5.19
2023-03-02T04:42:51.251Z,-5.14
2023-03-02T04:48:13.286Z,-5.18
2023-03-02T04:53:35.350Z,-5.26
2023-03-02T04:58:57.965Z,-5.26
2023-03-02T05:04:20.768Z,-5.13
2023-03-02T05:09:43.450Z,-4.98
2023-03-02T05:15:05.758Z,-5.09
2023-03-02T05:20:30.958Z,-4.85
2023-03-02T05:25:56.757Z,-4.77
2023-03-02T05:31:24.293Z,-4.71
2023-03-02T05:36:46.604Z,-4.64
2023-03-02T05:42:08.371Z,-4.50
2023-03-02T05:47:35.625Z,-4.42
2023-03-02T05:52:58.853Z,-4.36
2023-03-02T05:58:21.715Z,-4.19
2023-03-02T06:03:47.100Z,-4.24
2023-03-02T06:09:09.850Z,-4.18
2023-03-02T06:14:32.240Z,-4.03
2023-03-02T06:19:54.195Z,-4.05
2023-03-02T06:25:19.698Z,-4.04
2023-03-02T06:30:42.359Z,-3.71
2023-03-02T06:36:04.727Z,-3.69
2023-03-02T06:41:27.201Z,-3.37
2023-03-02T06:46:49.033Z,-3.45
2023-03-02T06:52:11.662Z,-3.53
2023-03-02T06:57:36.551Z,-3.47
2023-03-02T07:02:58.539Z,-3.16
2023-03-02T07:08:20.499Z,-3.13
2023-03-02T07:13:42.764Z,-2.68
2023-03-02T07:19:05.114Z,-2.58
2023-03-02T07:24:26.918Z,-2.62
2023-03-02T07:29:49.025Z,-2.58
2023-03-02T07:35:11.148Z,-2.82
2023-03-02T07:40:33.068Z,-2.67
2023-03-02T07:45:58.069Z,-2.73
2023-03-02T07:51:21.629Z,-2.69
2023-03-02T07:56:46.568Z,-2.96
2023-03-02T08:02:13.677Z,-3.06
2023-03-02T08:07:36.163Z,-2.70
2023-03-02T08:12:58.178Z,-2.65
2023-03-02T08:18:20.591Z,-2.96
2023-03-02T08:23:43.163Z,-2.74
2023-03-02T08:29:06.323Z,-2.64
2023-03-02T08:34:28.658Z,-2.67
2023-03-02T08:39:52.472Z,-2.66
2023-03-02T08:45:14.899Z,-2.41
2023-03-02T08:50:36.977Z,-2.53
2023-03-02T08:55:59.204Z,-2.51
2023-03-02T09:01:24.584Z,-2.27
2023-03-02T09:06:46.589Z,-2.20
2023-03-02T09:12:08.557Z,-2.09
2023-03-02T09:17:30.507Z,-1.97
2023-03-02T09:22:52.787Z,-2.07
2023-03-02T09:28:15.544Z,-1.95
2023-03-02T09:33:37.423Z,-1.65
2023-03-02T09:38:59.302Z,-1.73
2023-03-02T09:44:41.199Z,-1.76
2023-03-02T09:50:31.493Z,-1.51
2023-03-02T09:56:00.694Z,-1.54
2023-03-02T10:01:57.047Z,-1.55
2023-03-02T10:07:31.443Z,-1.86
2023-03-02T10:13:04.329Z,-1.94
2023-03-02T10:18:50.442Z,-2.22
2023-03-02T10:24:54.196Z,-2.54
2023-03-02T10:30:37.847Z,-2.38
2023-03-02T10:36:05.221Z,-2.04
2023-03-02T10:42:05.508Z,-2.11
2023-03-02T10:47:42.598Z,-2.26
2023-03-02T10:53:16.503Z,-2.10
2023-03-02T10:58:38.243Z,-2.07
2023-03-02T11:04:02.583Z,-2.21
2023-03-02T11:14:46.624Z,-2.08
2023-03-02T11:20:20.617Z,-2.04
2023-03-02T11:25:53.509Z,-1.78
2023-03-02T11:31:27.616Z,-1.70
2023-03-02T11:36:59.560Z,-1.79
2023-03-02T11:42:33.713Z,-1.88
2023-03-02T11:48:03.592Z,-2.02
2023-03-02T11:53:30.672Z,-2.03
2023-03-02T11:58:58.636Z,-2.19
2023-03-02T12:04:38.754Z,-2.07
2023-03-02T12:10:05.490Z,-2.11
2023-03-02T12:15:30.063Z,-2.24
2023-03-02T12:21:11.672Z,-2.24
2023-03-02T12:34:50.266Z,-2.05
2023-03-02T12:40:38.255Z,-2.01
2023-03-02T12:46:14.409Z,-1.86
2023-03-02T12:52:06.617Z,-2.02
2023-03-02T12:57:39.805Z,-1.93
2023-03-02T13:03:07.584Z,-1.92
2023-03-02T13:08:33.281Z,-2.04
2023-03-02T13:13:55.512Z,-2.22
2023-03-02T13:19:22.240Z,-2.29
2023-03-02T13:24:56.210Z,-2.00
2023-03-02T13:30:34.179Z,-2.36
2023-03-02T13:35:56.972Z,-2.36
2023-03-02T13:41:30.514Z,-2.62
2023-03-02T13:46:55.542Z,-2.56
2023-03-02T13:52:31.841Z,-2.78
2023-03-02T13:57:55.421Z,-2.74
2023-03-02T14:03:27.804Z,-2.94
2023-03-02T14:08:50.712Z,-2.98
2023-03-02T14:14:19.394Z,-3.14
2023-03-02T14:19:43.919Z,-3.10
2023-03-02T14:25:06.440Z,-3.05
2023-03-02T14:30:28.437Z,-3.09
2023-03-02T14:35:53.901Z,-3.31
2023-03-02T14:41:23.623Z,-3.30
2023-03-02T14:46:45.968Z,-3.44
2023-03-02T14:52:15.960Z,-3.23
2023-03-02T14:57:41.686Z,-3.50
2023-03-02T15:03:07.359Z,-3.33
2023-03-02T15:08:30.713Z,-3.34
2023-03-02T15:13:53.841Z,-3.59
2023-03-02T15:19:21.919Z,-3.72
2023-03-02T15:24:50.127Z,-3.44
2023-03-02T15:30:12.928Z,-3.72
2023-03-02T15:35:39.156Z,-3.59
2023-03-02T15:41:06.333Z,-3.56
2023-03-02T15:46:31.801Z,-3.64
2023-03-02T15:51:57.900Z,-3.45
2023-03-02T15:57:20.522Z,-3.53
2023-03-02T16:02:42.810Z,-3.58
2023-03-02T16:08:05.196Z,-3.56
2023-03-02T16:13:31.170Z,-3.51
2023-03-02T16:18:58.774Z,-3.55
2023-03-02T16:24:20.788Z,-3.59
2023-03-02T16:29:44.000Z,-3.70
2023-03-02T16:35:07.286Z,-3.73
2023-03-02T16:40:29.827Z,-3.61
2023-03-02T16:45:53.162Z,-3.69
2023-03-02T16:51:16.199Z,-3.81
2023-03-02T16:56:38.961Z,-3.75
2023-03-02T17:02:04.514Z,-3.58
2023-03-02T17:07:30.171Z,-3.81
2023-03-02T17:13:21.869Z,-3.75
2023-03-02T17:18:49.709Z,-3.63
2023-03-02T17:24:11.559Z,-3.62
2023-03-02T17:29:33.204Z,-3.60
2023-03-02T17:34:54.932Z,-3.70
2023-03-02T17:40:17.738Z,-3.75
2023-03-02T17:45:40.782Z,-3.91
2023-03-02T17:51:02.536Z,-3.85
2023-03-02T17:56:27.374Z,-3.60
2023-03-02T18:01:49.793Z,-3.61
2023-03-02T18:07:13.760Z,-3.65
2023-03-02T18:12:35.901Z,-3.80
2023-03-02T18:18:03.478Z,-3.66
2023-03-02T18:23:26.345Z,-3.67
2023-03-02T18:28:51.660Z,-3.67
2023-03-02T18:34:14.084Z,-3.79
2023-03-02T18:39:38.394Z,-3.65
2023-03-02T18:45:01.265Z,-3.58
2023-03-02T18:50:27.368Z,-3.61
2023-03-02T18:55:56.089Z,-3.59
2023-03-02T19:01:19.932Z,-3.88
2023-03-02T19:06:46.357Z,-3.87
2023-03-02T19:12:08.632Z,-3.52
2023-03-02T19:17:30.607Z,-3.74
2023-03-02T19:22:52.641Z,-3.56
2023-03-02T19:28:14.775Z,-3.64
2023-03-02T19:33:36.997Z,-3.67
2023-03-02T19:38:58.752Z,-3.46
2023-03-02T19:44:20.530Z,-3.43
2023-03-02T19:49:42.606Z,-3.43
2023-03-02T19:55:04.536Z,-3.51
2023-03-02T20:00:28.695Z,-3.47
2023-03-02T20:05:49.749Z,-3.50
2023-03-02T20:11:12.740Z,-3.58
2023-03-02T20:16:39.307Z,-3.44
2023-03-02T20:22:03.356Z,-3.45
2023-03-02T20:27:25.667Z,-3.42
2023-03-02T20:32:47.958Z,-3.30
2023-03-02T20:38:16.230Z,-3.19
2023-03-02T20:43:39.819Z,-3.28
2023-03-02T20:49:02.323Z,-3.33
2023-03-02T20:54:29.703Z,-3.27
2023-03-02T20:59:51.886Z,-3.14
2023-03-02T21:05:14.460Z,-3.08
2023-03-02T21:10:38.876Z,-3.14
2023-03-02T21:16:01.575Z,-3.06
2023-03-02T21:21:35.704Z,-3.08
2023-03-02T21:27:03.524Z,-3.08
2023-03-02T21:32:25.793Z,-2.98
2023-03-02T21:37:50.664Z,-2.95
2023-03-02T21:43:14.655Z,-2.86
2023-03-02T21:48:37.043Z,-2.95
2023-03-02T21:53:59.542Z,-2.92
2023-03-02T21:59:21.408Z,-2.94
2023-03-02T22:04:43.610Z,-3.04
2023-03-02T22:10:06.373Z,-2.82
2023-03-02T22:15:28.787Z,-2.99
2023-03-02T22:20:52.670Z,-2.73
2023-03-02T22:26:18.050Z,-2.65
2023-03-02T22:31:45.139Z,-2.67
2023-03-02T22:37:18.556Z,-2.55
2023-03-02T22:42:40.625Z,-2.64
2023-03-02T22:48:02.945Z,-2.61
2023-03-02T22:53:31.340Z,-2.61
2023-03-02T22:58:54.656Z,-2.42
2023-03-02T23:04:30.783Z,-2.50
2023-03-02T23:09:52.869Z,-2.44
2023-03-02T23:15:20.517Z,-2.27
2023-03-02T23:20:42.898Z,-2.25
2023-03-02T23:26:05.354Z,-2.29
2023-03-02T23:31:30.045Z,-2.20
2023-03-02T23:36:52.206Z,-2.27
2023-03-02T23:42:14.485Z,-2.05
2023-03-02T23:47:36.623Z,-2.02
2023-03-02T23:52:58.844Z,-2.11
2023-03-02T23:58:21.777Z,-2.07
